sensor_id;sensor_type;location;lat;lon;timestamp;P1;durP1;ratioP1;P2;durP2;ratioP2
62419;SDS011;48460;51.616;5.426;2023-02-28T05:50:01;9.05;;;4.72;;
62419;SDS011;48460;51.616;5.426;2023-02-28T05:58:17;9.10;;;4.80;;
62419;SDS011;48460;51.616;5.426;2023-02-28T06:00:48;8.13;;;5.15;;
62419;SDS011;48460;51.616;5.426;2023-02-28T06:03:17;9.43;;;5.50;;
62419;SDS011;48460;51.616;5.426;2023-02-28T06:05:42;9.85;;;5.50;;
62419;SDS011;48460;51.616;5.426;2023-02-28T06:08:10;9.68;;;5.88;;
62419;SDS011;48460;51.616;5.426;2023-02-28T06:10:36;10.10;;;5.90;;
62419;SDS011;48460;51.616;5.426;2023-02-28T06:13:05;10.55;;;5.32;;
62419;SDS011;48460;51.616;5.426;2023-02-28T06:15:31;10.05;;;5.32;;
62419;SDS011;48460;51.616;5.426;2023-02-28T06:18:00;11.35;;;5.70;;
62419;SDS011;48460;51.616;5.426;2023-02-28T06:20:26;10.10;;;5.85;;
62419;SDS011;48460;51.616;5.426;2023-02-28T06:22:55;11.07;;;5.95;;
62419;SDS011;48460;51.616;5.426;2023-02-28T06:25:24;13.68;;;5.25;;
62419;SDS011;48460;51.616;5.426;2023-02-28T06:28:02;13.10;;;5.95;;
62419;SDS011;48460;51.616;5.426;2023-02-28T06:30:28;11.15;;;6.18;;
62419;SDS011;48460;51.616;5.426;2023-02-28T06:32:56;12.85;;;5.93;;
62419;SDS011;48460;51.616;5.426;2023-02-28T06:35:21;11.60;;;5.57;;
62419;SDS011;48460;51.616;5.426;2023-02-28T06:38:00;9.75;;;5.57;;
62419;SDS011;48460;51.616;5.426;2023-02-28T06:40:26;9.25;;;5.63;;
62419;SDS011;48460;51.616;5.426;2023-02-28T06:42:58;10.32;;;5.28;;
62419;SDS011;48460;51.616;5.426;2023-02-28T06:45:24;9.38;;;5.70;;
62419;SDS011;48460;51.616;5.426;2023-02-28T06:47:51;14.05;;;5.00;;
62419;SDS011;48460;51.616;5.426;2023-02-28T06:50:17;13.25;;;5.20;;
62419;SDS011;48460;51.616;5.426;2023-02-28T06:52:46;8.43;;;4.90;;
62419;SDS011;48460;51.616;5.426;2023-02-28T06:55:12;13.98;;;5.32;;
62419;SDS011;48460;51.616;5.426;2023-02-28T06:57:42;11.57;;;5.35;;
62419;SDS011;48460;51.616;5.426;2023-02-28T07:00:08;9.00;;;5.05;;
62419;SDS011;48460;51.616;5.426;2023-02-28T07:02:35;8.25;;;4.88;;
62419;SDS011;48460;51.616;5.426;2023-02-28T07:05:01;9.07;;;4.72;;
62419;SDS011;48460;51.616;5.426;2023-02-28T07:07:34;9.80;;;4.72;;
62419;SDS011;48460;51.616;5.426;2023-02-28T07:10:02;12.80;;;4.50;;
62419;SDS011;48460;51.616;5.426;2023-02-28T07:12:30;10.15;;;4.70;;
62419;SDS011;48460;51.616;5.426;2023-02-28T07:15:01;8.98;;;4.68;;
62419;SDS011;48460;51.616;5.426;2023-02-28T07:17:28;10.88;;;5.00;;
62419;SDS011;48460;51.616;5.426;2023-02-28T07:19:54;8.85;;;4.63;;
62419;SDS011;48460;51.616;5.426;2023-02-28T07:22:19;9.38;;;4.57;;
62419;SDS011;48460;51.616;5.426;2023-02-28T07:24:45;8.05;;;4.30;;
62419;SDS011;48460;51.616;5.426;2023-02-28T07:27:19;6.18;;;4.00;;
62419;SDS011;48460;51.616;5.426;2023-02-28T07:29:50;9.68;;;3.90;;
62419;SDS011;48460;51.616;5.426;2023-02-28T07:32:26;7.05;;;3.08;;
62419;SDS011;48460;51.616;5.426;2023-02-28T07:35:01;8.10;;;4.10;;
62419;SDS011;48460;51.616;5.426;2023-02-28T07:37:29;7.82;;;3.83;;
62419;SDS011;48460;51.616;5.426;2023-02-28T07:39:56;7.43;;;3.78;;
62419;SDS011;48460;51.616;5.426;2023-02-28T07:42:26;5.57;;;3.35;;
62419;SDS011;48460;51.616;5.426;2023-02-28T07:45:12;7.43;;;4.13;;
62419;SDS011;48460;51.616;5.426;2023-02-28T07:47:43;8.98;;;4.18;;
62419;SDS011;48460;51.616;5.426;2023-02-28T07:50:19;7.82;;;3.90;;
62419;SDS011;48460;51.616;5.426;2023-02-28T07:53:07;8.02;;;4.15;;
62419;SDS011;48460;51.616;5.426;2023-02-28T07:55:38;8.30;;;4.28;;
62419;SDS011;48460;51.616;5.426;2023-02-28T07:58:14;6.82;;;3.83;;
62419;SDS011;48460;51.616;5.426;2023-02-28T08:00:39;8.35;;;4.45;;
62419;SDS011;48460;51.616;5.426;2023-02-28T08:03:18;9.30;;;4.28;;
62419;SDS011;48460;51.616;5.426;2023-02-28T08:05:45;5.72;;;3.72;;
62419;SDS011;48460;51.616;5.426;2023-02-28T08:08:25;6.10;;;3.35;;
62419;SDS011;48460;51.616;5.426;2023-02-28T08:11:12;8.30;;;3.90;;
62419;SDS011;48460;51.616;5.426;2023-02-28T08:13:43;6.25;;;3.38;;
62419;SDS011;48460;51.616;5.426;2023-02-28T08:16:12;7.78;;;4.05;;
62419;SDS011;48460;51.616;5.426;2023-02-28T08:18:52;8.18;;;4.20;;
62419;SDS011;48460;51.616;5.426;2023-02-28T08:21:24;5.45;;;3.72;;
62419;SDS011;48460;51.616;5.426;2023-02-28T08:23:52;9.90;;;4.00;;
62419;SDS011;48460;51.616;5.426;2023-02-28T08:26:17;5.70;;;3.90;;
62419;SDS011;48460;51.616;5.426;2023-02-28T08:28:44;6.88;;;3.88;;
62419;SDS011;48460;51.616;5.426;2023-02-28T08:31:12;6.72;;;4.13;;
62419;SDS011;48460;51.616;5.426;2023-02-28T08:33:48;5.82;;;3.75;;
62419;SDS011;48460;51.616;5.426;2023-02-28T08:36:16;8.98;;;3.88;;
62419;SDS011;48460;51.616;5.426;2023-02-28T08:38:42;8.90;;;3.90;;
62419;SDS011;48460;51.616;5.426;2023-02-28T08:41:09;4.65;;;2.85;;
62419;SDS011;48460;51.616;5.426;2023-02-28T08:43:36;5.60;;;3.00;;
62419;SDS011;48460;51.616;5.426;2023-02-28T08:46:02;5.28;;;2.45;;
62419;SDS011;48460;51.616;5.426;2023-02-28T08:48:29;6.35;;;2.63;;
62419;SDS011;48460;51.616;5.426;2023-02-28T08:51:03;3.28;;;2.28;;
62419;SDS011;48460;51.616;5.426;2023-02-28T08:53:33;4.55;;;2.20;;
62419;SDS011;48460;51.616;5.426;2023-02-28T08:56:02;7.72;;;2.97;;
62419;SDS011;48460;51.616;5.426;2023-02-28T08:58:29;4.97;;;2.60;;
62419;SDS011;48460;51.616;5.426;2023-02-28T09:00:56;3.40;;;2.50;;
62419;SDS011;48460;51.616;5.426;2023-02-28T09:03:27;7.25;;;2.50;;
62419;SDS011;48460;51.616;5.426;2023-02-28T09:08:26;4.85;;;2.58;;
62419;SDS011;48460;51.616;5.426;2023-02-28T09:10:56;6.85;;;2.55;;
62419;SDS011;48460;51.616;5.426;2023-02-28T09:13:27;5.28;;;2.70;;
62419;SDS011;48460;51.616;5.426;2023-02-28T09:15:53;3.65;;;2.47;;
62419;SDS011;48460;51.616;5.426;2023-02-28T09:18:22;5.03;;;2.83;;
62419;SDS011;48460;51.616;5.426;2023-02-28T09:20:55;4.30;;;2.55;;
62419;SDS011;48460;51.616;5.426;2023-02-28T09:23:29;6.03;;;2.70;;
62419;SDS011;48460;51.616;5.426;2023-02-28T09:25:57;3.83;;;2.60;;
62419;SDS011;48460;51.616;5.426;2023-02-28T09:28:28;4.55;;;2.40;;
62419;SDS011;48460;51.616;5.426;2023-02-28T09:30:56;4.07;;;2.45;;
62419;SDS011;48460;51.616;5.426;2023-02-28T09:33:27;4.03;;;2.20;;
62419;SDS011;48460;51.616;5.426;2023-02-28T09:36:00;5.80;;;2.53;;
62419;SDS011;48460;51.616;5.426;2023-02-28T09:38:37;5.03;;;2.33;;
62419;SDS011;48460;51.616;5.426;2023-02-28T09:44:06;3.40;;;2.28;;
62419;SDS011;48460;51.616;5.426;2023-02-28T09:46:43;4.60;;;2.22;;
62419;SDS011;48460;51.616;5.426;2023-02-28T09:49:40;4.30;;;2.40;;
62419;SDS011;48460;51.616;5.426;2023-02-28T09:57:50;3.00;;;2.10;;
62419;SDS011;48460;51.616;5.426;2023-02-28T10:00:36;2.47;;;1.90;;
62419;SDS011;48460;51.616;5.426;2023-02-28T10:05:59;5.05;;;2.63;;
62419;SDS011;48460;51.616;5.426;2023-02-28T10:08:45;4.00;;;2.35;;
62419;SDS011;48460;51.616;5.426;2023-02-28T10:11:17;7.57;;;2.83;;
62419;SDS011;48460;51.616;5.426;2023-02-28T10:16:24;3.70;;;2.38;;
62419;SDS011;48460;51.616;5.426;2023-02-28T10:18:59;4.57;;;2.42;;
62419;SDS011;48460;51.616;5.426;2023-02-28T10:24:04;4.00;;;2.35;;
62419;SDS011;48460;51.616;5.426;2023-02-28T10:26:51;3.35;;;2.17;;
62419;SDS011;48460;51.616;5.426;2023-02-28T10:29:23;5.78;;;2.45;;
62419;SDS011;48460;51.616;5.426;2023-02-28T10:36:59;5.57;;;2.72;;
62419;SDS011;48460;51.616;5.426;2023-02-28T10:42:02;3.60;;;2.45;;
62419;SDS011;48460;51.616;5.426;2023-02-28T10:44:36;2.88;;;2.20;;
62419;SDS011;48460;51.616;5.426;2023-02-28T10:47:01;3.58;;;2.28;;
62419;SDS011;48460;51.616;5.426;2023-02-28T10:49:37;3.95;;;2.42;;
62419;SDS011;48460;51.616;5.426;2023-02-28T10:52:12;4.80;;;2.50;;
62419;SDS011;48460;51.616;5.426;2023-02-28T10:54:38;5.15;;;2.30;;
62419;SDS011;48460;51.616;5.426;2023-02-28T10:57:21;4.50;;;2.55;;
62419;SDS011;48460;51.616;5.426;2023-02-28T10:59:51;3.22;;;2.20;;
62419;SDS011;48460;51.616;5.426;2023-02-28T11:02:30;5.60;;;2.45;;
62419;SDS011;48460;51.616;5.426;2023-02-28T11:04:58;3.38;;;2.20;;
62419;SDS011;48460;51.616;5.426;2023-02-28T11:07:34;4.40;;;2.40;;
62419;SDS011;48460;51.616;5.426;2023-02-28T11:09:59;4.10;;;2.30;;
62419;SDS011;48460;51.616;5.426;2023-02-28T11:12:38;4.47;;;2.15;;
62419;SDS011;48460;51.616;5.426;2023-02-28T11:15:19;3.72;;;2.40;;
62419;SDS011;48460;51.616;5.426;2023-02-28T11:17:53;3.92;;;2.45;;
62419;SDS011;48460;51.616;5.426;2023-02-28T11:20:25;4.82;;;2.45;;
62419;SDS011;48460;51.616;5.426;2023-02-28T11:22:56;2.65;;;2.10;;
62419;SDS011;48460;51.616;5.426;2023-02-28T11:25:28;4.20;;;2.40;;
62419;SDS011;48460;51.616;5.426;2023-02-28T11:28:34;3.83;;;2.30;;
62419;SDS011;48460;51.616;5.426;2023-02-28T11:31:00;2.70;;;2.15;;
62419;SDS011;48460;51.616;5.426;2023-02-28T11:33:32;3.45;;;2.20;;
62419;SDS011;48460;51.616;5.426;2023-02-28T11:36:03;3.90;;;2.30;;
62419;SDS011;48460;51.616;5.426;2023-02-28T11:38:34;3.88;;;2.13;;
62419;SDS011;48460;51.616;5.426;2023-02-28T11:41:04;3.88;;;2.45;;
62419;SDS011;48460;51.616;5.426;2023-02-28T11:51:32;6.93;;;2.38;;
62419;SDS011;48460;51.616;5.426;2023-02-28T12:00:06;5.45;;;2.38;;
62419;SDS011;48460;51.616;5.426;2023-02-28T12:05:46;5.07;;;2.60;;
62419;SDS011;48460;51.616;5.426;2023-02-28T12:16:37;3.33;;;2.10;;
62419;SDS011;48460;51.616;5.426;2023-02-28T12:19:21;4.88;;;2.40;;
62419;SDS011;48460;51.616;5.426;2023-02-28T12:27:29;4.47;;;2.38;;
62419;SDS011;48460;51.616;5.426;2023-02-28T12:29:59;4.25;;;2.35;;
62419;SDS011;48460;51.616;5.426;2023-02-28T12:32:34;5.25;;;2.30;;
62419;SDS011;48460;51.616;5.426;2023-02-28T12:37:40;3.60;;;2.30;;
62419;SDS011;48460;51.616;5.426;2023-02-28T12:40:23;6.20;;;2.80;;
62419;SDS011;48460;51.616;5.426;2023-02-28T12:42:57;4.75;;;2.60;;
62419;SDS011;48460;51.616;5.426;2023-02-28T12:45:27;4.07;;;2.60;;
62419;SDS011;48460;51.616;5.426;2023-02-28T12:48:06;4.50;;;2.58;;
62419;SDS011;48460;51.616;5.426;2023-02-28T12:50:35;3.38;;;2.10;;
62419;SDS011;48460;51.616;5.426;2023-02-28T13:14:02;7.55;;;2.45;;
62419;SDS011;48460;51.616;5.426;2023-02-28T13:19:45;4.00;;;2.78;;
62419;SDS011;48460;51.616;5.426;2023-02-28T13:27:47;4.25;;;2.58;;
62419;SDS011;48460;51.616;5.426;2023-02-28T13:38:44;3.75;;;2.55;;
62419;SDS011;48460;51.616;5.426;2023-02-28T13:49:34;5.05;;;2.78;;
62419;SDS011;48460;51.616;5.426;2023-02-28T13:52:27;5.78;;;2.60;;
62419;SDS011;48460;51.616;5.426;2023-02-28T14:03:48;5.65;;;2.70;;
62419;SDS011;48460;51.616;5.426;2023-02-28T14:06:37;7.13;;;2.70;;
62419;SDS011;48460;51.616;5.426;2023-02-28T14:11:56;4.78;;;2.75;;
62419;SDS011;48460;51.616;5.426;2023-02-28T14:17:21;4.73;;;2.90;;
62419;SDS011;48460;51.616;5.426;2023-02-28T14:19:58;6.35;;;2.70;;
62419;SDS011;48460;51.616;5.426;2023-02-28T14:22:52;5.03;;;2.75;;
62419;SDS011;48460;51.616;5.426;2023-02-28T14:25:43;4.78;;;3.00;;
62419;SDS011;48460;51.616;5.426;2023-02-28T14:31:42;3.95;;;2.75;;
62419;SDS011;48460;51.616;5.426;2023-02-28T14:34:44;5.28;;;2.90;;
62419;SDS011;48460;51.616;5.426;2023-02-28T14:37:36;4.95;;;2.88;;
62419;SDS011;48460;51.616;5.426;2023-02-28T14:40:22;5.28;;;2.92;;
62419;SDS011;48460;51.616;5.426;2023-02-28T14:42:58;9.65;;;3.05;;
62419;SDS011;48460;51.616;5.426;2023-02-28T14:48:02;5.05;;;2.88;;
62419;SDS011;48460;51.616;5.426;2023-02-28T14:50:34;5.90;;;3.15;;
62419;SDS011;48460;51.616;5.426;2023-02-28T14:53:19;4.80;;;3.20;;
62419;SDS011;48460;51.616;5.426;2023-02-28T14:55:47;4.45;;;2.90;;
62419;SDS011;48460;51.616;5.426;2023-02-28T15:00:58;4.38;;;2.78;;
62419;SDS011;48460;51.616;5.426;2023-02-28T15:03:36;3.90;;;2.60;;
62419;SDS011;48460;51.616;5.426;2023-02-28T15:06:16;4.88;;;2.70;;
62419;SDS011;48460;51.616;5.426;2023-02-28T15:08:43;5.32;;;2.45;;
62419;SDS011;48460;51.616;5.426;2023-02-28T15:11:17;5.00;;;2.90;;
62419;SDS011;48460;51.616;5.426;2023-02-28T15:13:47;3.10;;;2.30;;
62419;SDS011;48460;51.616;5.426;2023-02-28T15:16:35;4.70;;;2.80;;
62419;SDS011;48460;51.616;5.426;2023-02-28T15:22:01;5.65;;;3.08;;
62419;SDS011;48460;51.616;5.426;2023-02-28T15:24:44;4.28;;;2.80;;
62419;SDS011;48460;51.616;5.426;2023-02-28T15:27:21;9.40;;;3.00;;
62419;SDS011;48460;51.616;5.426;2023-02-28T15:29:51;6.22;;;3.10;;
62419;SDS011;48460;51.616;5.426;2023-02-28T15:32:32;4.97;;;2.90;;
62419;SDS011;48460;51.616;5.426;2023-02-28T15:43:29;3.95;;;2.42;;
62419;SDS011;48460;51.616;5.426;2023-02-28T15:45:59;18.08;;;3.08;;
62419;SDS011;48460;51.616;5.426;2023-02-28T15:48:51;4.75;;;3.28;;
62419;SDS011;48460;51.616;5.426;2023-02-28T15:51:44;5.90;;;2.83;;
62419;SDS011;48460;51.616;5.426;2023-02-28T15:54:27;5.03;;;2.97;;
62419;SDS011;48460;51.616;5.426;2023-02-28T15:57:38;5.63;;;3.10;;
62419;SDS011;48460;51.616;5.426;2023-02-28T16:00:18;4.45;;;2.65;;
62419;SDS011;48460;51.616;5.426;2023-02-28T16:02:46;4.43;;;3.00;;
62419;SDS011;48460;51.616;5.426;2023-02-28T16:05:24;7.00;;;3.30;;
62419;SDS011;48460;51.616;5.426;2023-02-28T16:07:53;5.07;;;2.97;;
62419;SDS011;48460;51.616;5.426;2023-02-28T16:10:29;4.70;;;2.80;;
62419;SDS011;48460;51.616;5.426;2023-02-28T16:13:05;5.53;;;3.15;;
62419;SDS011;48460;51.616;5.426;2023-02-28T16:15:41;6.15;;;3.03;;
62419;SDS011;48460;51.616;5.426;2023-02-28T16:18:26;4.28;;;2.80;;
62419;SDS011;48460;51.616;5.426;2023-02-28T16:20:54;5.32;;;3.00;;
62419;SDS011;48460;51.616;5.426;2023-02-28T16:23:21;3.78;;;2.78;;
62419;SDS011;48460;51.616;5.426;2023-02-28T16:30:54;5.10;;;3.00;;
62419;SDS011;48460;51.616;5.426;2023-02-28T16:33:22;7.47;;;3.05;;
62419;SDS011;48460;51.616;5.426;2023-02-28T16:35:48;5.45;;;2.83;;
62419;SDS011;48460;51.616;5.426;2023-02-28T16:38:14;4.30;;;2.90;;
62419;SDS011;48460;51.616;5.426;2023-02-28T16:40:40;5.82;;;3.10;;
62419;SDS011;48460;51.616;5.426;2023-02-28T16:43:19;4.45;;;3.00;;
62419;SDS011;48460;51.616;5.426;2023-02-28T16:45:54;6.55;;;3.10;;
62419;SDS011;48460;51.616;5.426;2023-02-28T16:48:24;5.82;;;3.35;;
62419;SDS011;48460;51.616;5.426;2023-02-28T16:51:14;5.38;;;3.15;;
62419;SDS011;48460;51.616;5.426;2023-02-28T16:53:40;7.57;;;3.30;;
62419;SDS011;48460;51.616;5.426;2023-02-28T16:56:19;6.03;;;3.38;;
62419;SDS011;48460;51.616;5.426;2023-02-28T16:59:27;7.45;;;3.50;;
62419;SDS011;48460;51.616;5.426;2023-02-28T17:02:08;5.45;;;3.35;;
62419;SDS011;48460;51.616;5.426;2023-02-28T17:04:37;5.53;;;3.15;;
62419;SDS011;48460;51.616;5.426;2023-02-28T17:07:06;7.20;;;3.83;;
62419;SDS011;48460;51.616;5.426;2023-02-28T17:09:38;6.65;;;3.20;;
62419;SDS011;48460;51.616;5.426;2023-02-28T17:12:06;5.55;;;3.38;;
62419;SDS011;48460;51.616;5.426;2023-02-28T17:14:38;8.10;;;3.50;;
62419;SDS011;48460;51.616;5.426;2023-02-28T17:17:06;5.72;;;3.20;;
62419;SDS011;48460;51.616;5.426;2023-02-28T17:19:37;5.85;;;3.60;;
62419;SDS011;48460;51.616;5.426;2023-02-28T17:22:07;6.68;;;3.75;;
62419;SDS011;48460;51.616;5.426;2023-02-28T17:24:36;6.25;;;3.53;;
62419;SDS011;48460;51.616;5.426;2023-02-28T17:27:11;7.45;;;4.80;;
62419;SDS011;48460;51.616;5.426;2023-02-28T17:29:43;7.97;;;4.60;;
62419;SDS011;48460;51.616;5.426;2023-02-28T17:32:08;7.47;;;4.45;;
62419;SDS011;48460;51.616;5.426;2023-02-28T17:34:34;8.07;;;4.38;;
62419;SDS011;48460;51.616;5.426;2023-02-28T17:37:02;6.60;;;3.88;;
62419;SDS011;48460;51.616;5.426;2023-02-28T17:39:38;6.90;;;4.00;;
62419;SDS011;48460;51.616;5.426;2023-02-28T17:42:03;6.53;;;3.80;;
62419;SDS011;48460;51.616;5.426;2023-02-28T17:44:29;6.10;;;3.63;;
62419;SDS011;48460;51.616;5.426;2023-02-28T17:47:05;6.18;;;3.60;;
62419;SDS011;48460;51.616;5.426;2023-02-28T17:49:33;6.20;;;3.70;;
62419;SDS011;48460;51.616;5.426;2023-02-28T17:51:58;5.78;;;3.13;;
62419;SDS011;48460;51.616;5.426;2023-02-28T17:54:35;6.07;;;3.58;;
62419;SDS011;48460;51.616;5.426;2023-02-28T17:57:01;7.13;;;3.40;;
62419;SDS011;48460;51.616;5.426;2023-02-28T17:59:26;5.30;;;3.42;;
62419;SDS011;48460;51.616;5.426;2023-02-28T18:01:58;4.97;;;3.33;;
62419;SDS011;48460;51.616;5.426;2023-02-28T18:04:25;6.03;;;3.40;;
62419;SDS011;48460;51.616;5.426;2023-02-28T18:06:52;7.90;;;4.40;;
62419;SDS011;48460;51.616;5.426;2023-02-28T18:09:19;9.93;;;4.40;;
62419;SDS011;48460;51.616;5.426;2023-02-28T18:11:50;9.98;;;5.30;;
62419;SDS011;48460;51.616;5.426;2023-02-28T18:14:21;9.93;;;5.10;;
62419;SDS011;48460;51.616;5.426;2023-02-28T18:16:52;9.18;;;5.13;;
62419;SDS011;48460;51.616;5.426;2023-02-28T18:19:21;13.68;;;5.03;;
62419;SDS011;48460;51.616;5.426;2023-02-28T18:21:50;8.30;;;5.10;;
62419;SDS011;48460;51.616;5.426;2023-02-28T18:24:20;11.50;;;5.40;;
62419;SDS011;48460;51.616;5.426;2023-02-28T18:26:47;12.35;;;5.35;;
62419;SDS011;48460;51.616;5.426;2023-02-28T18:29:19;15.95;;;5.28;;
62419;SDS011;48460;51.616;5.426;2023-02-28T18:31:48;13.00;;;5.80;;
62419;SDS011;48460;51.616;5.426;2023-02-28T18:34:14;11.75;;;5.30;;
62419;SDS011;48460;51.616;5.426;2023-02-28T18:36:44;10.88;;;5.53;;
62419;SDS011;48460;51.616;5.426;2023-02-28T18:39:19;12.68;;;5.65;;
62419;SDS011;48460;51.616;5.426;2023-02-28T18:41:47;9.52;;;5.43;;
62419;SDS011;48460;51.616;5.426;2023-02-28T18:44:15;8.48;;;5.35;;
62419;SDS011;48460;51.616;5.426;2023-02-28T18:46:42;9.50;;;5.57;;
62419;SDS011;48460;51.616;5.426;2023-02-28T18:49:07;10.52;;;5.32;;
62419;SDS011;48460;51.616;5.426;2023-02-28T18:51:33;12.52;;;5.80;;
62419;SDS011;48460;51.616;5.426;2023-02-28T18:54:01;15.77;;;6.10;;
62419;SDS011;48460;51.616;5.426;2023-02-28T18:56:29;16.60;;;6.20;;
62419;SDS011;48460;51.616;5.426;2023-02-28T18:58:55;22.77;;;8.30;;
62419;SDS011;48460;51.616;5.426;2023-02-28T19:01:21;18.70;;;7.93;;
62419;SDS011;48460;51.616;5.426;2023-02-28T19:03:56;19.23;;;7.88;;
62419;SDS011;48460;51.616;5.426;2023-02-28T19:06:25;24.92;;;9.80;;
62419;SDS011;48460;51.616;5.426;2023-02-28T19:08:54;21.25;;;9.60;;
62419;SDS011;48460;51.616;5.426;2023-02-28T19:11:24;23.43;;;10.23;;
62419;SDS011;48460;51.616;5.426;2023-02-28T19:13:53;21.92;;;9.70;;
62419;SDS011;48460;51.616;5.426;2023-02-28T19:16:26;18.40;;;8.73;;
62419;SDS011;48460;51.616;5.426;2023-02-28T19:18:52;16.88;;;8.57;;
62419;SDS011;48460;51.616;5.426;2023-02-28T19:21:23;16.73;;;8.47;;
62419;SDS011;48460;51.616;5.426;2023-02-28T19:24:00;17.30;;;8.30;;
62419;SDS011;48460;51.616;5.426;2023-02-28T19:26:29;15.07;;;7.93;;
62419;SDS011;48460;51.616;5.426;2023-02-28T19:28:55;16.02;;;8.30;;
62419;SDS011;48460;51.616;5.426;2023-02-28T19:31:25;17.17;;;7.78;;
62419;SDS011;48460;51.616;5.426;2023-02-28T19:33:51;16.25;;;8.20;;
62419;SDS011;48460;51.616;5.426;2023-02-28T19:36:23;18.23;;;8.75;;
62419;SDS011;48460;51.616;5.426;2023-02-28T19:39:04;21.42;;;10.30;;
62419;SDS011;48460;51.616;5.426;2023-02-28T19:41:32;27.92;;;12.30;;
62419;SDS011;48460;51.616;5.426;2023-02-28T19:44:01;25.40;;;12.38;;
62419;SDS011;48460;51.616;5.426;2023-02-28T19:46:29;23.95;;;11.20;;
62419;SDS011;48460;51.616;5.426;2023-02-28T19:48:54;20.95;;;9.95;;
62419;SDS011;48460;51.616;5.426;2023-02-28T19:53:52;18.60;;;8.85;;
62419;SDS011;48460;51.616;5.426;2023-02-28T19:56:22;18.42;;;8.50;;
62419;SDS011;48460;51.616;5.426;2023-02-28T19:58:50;18.05;;;7.47;;
62419;SDS011;48460;51.616;5.426;2023-02-28T20:01:25;12.65;;;6.88;;
62419;SDS011;48460;51.616;5.426;2023-02-28T20:03:56;13.38;;;6.80;;
62419;SDS011;48460;51.616;5.426;2023-02-28T20:06:22;14.13;;;6.43;;
62419;SDS011;48460;51.616;5.426;2023-02-28T20:08:47;12.35;;;6.43;;
62419;SDS011;48460;51.616;5.426;2023-02-28T20:11:16;13.52;;;6.90;;
62419;SDS011;48460;51.616;5.426;2023-02-28T20:13:42;14.55;;;6.78;;
62419;SDS011;48460;51.616;5.426;2023-02-28T20:16:09;11.30;;;6.57;;
62419;SDS011;48460;51.616;5.426;2023-02-28T20:18:36;11.48;;;7.05;;
62419;SDS011;48460;51.616;5.426;2023-02-28T20:21:09;15.02;;;7.05;;
62419;SDS011;48460;51.616;5.426;2023-02-28T20:23:40;13.38;;;7.43;;
62419;SDS011;48460;51.616;5.426;2023-02-28T20:26:08;13.48;;;7.70;;
62419;SDS011;48460;51.616;5.426;2023-02-28T20:28:36;18.13;;;8.30;;
62419;SDS011;48460;51.616;5.426;2023-02-28T20:31:09;14.48;;;7.30;;
62419;SDS011;48460;51.616;5.426;2023-02-28T20:33:36;16.48;;;7.70;;
62419;SDS011;48460;51.616;5.426;2023-02-28T20:36:04;14.85;;;7.45;;
62419;SDS011;48460;51.616;5.426;2023-02-28T20:38:40;13.85;;;7.38;;
62419;SDS011;48460;51.616;5.426;2023-02-28T20:41:12;11.35;;;6.63;;
62419;SDS011;48460;51.616;5.426;2023-02-28T20:43:40;14.45;;;6.80;;
62419;SDS011;48460;51.616;5.426;2023-02-28T20:46:06;13.63;;;7.20;;
62419;SDS011;48460;51.616;5.426;2023-02-28T20:48:34;11.75;;;6.55;;
62419;SDS011;48460;51.616;5.426;2023-02-28T20:51:00;11.40;;;6.20;;
62419;SDS011;48460;51.616;5.426;2023-02-28T20:53:31;12.35;;;6.97;;
62419;SDS011;48460;51.616;5.426;2023-02-28T20:58:46;10.60;;;6.35;;
62419;SDS011;48460;51.616;5.426;2023-02-28T21:03:42;11.60;;;6.50;;
62419;SDS011;48460;51.616;5.426;2023-02-28T21:06:09;8.85;;;5.60;;
62419;SDS011;48460;51.616;5.426;2023-02-28T21:08:35;10.02;;;5.90;;
62419;SDS011;48460;51.616;5.426;2023-02-28T21:11:01;10.45;;;5.50;;
62419;SDS011;48460;51.616;5.426;2023-02-28T21:13:41;11.90;;;5.53;;
62419;SDS011;48460;51.616;5.426;2023-02-28T21:16:24;9.40;;;5.47;;
62419;SDS011;48460;51.616;5.426;2023-02-28T21:31:39;15.10;;;5.70;;
62419;SDS011;48460;51.616;5.426;2023-02-28T21:34:46;9.25;;;5.20;;
62419;SDS011;48460;51.616;5.426;2023-02-28T21:44:10;10.02;;;5.97;;
62419;SDS011;48460;51.616;5.426;2023-02-28T21:47:02;10.02;;;5.65;;
62419;SDS011;48460;51.616;5.426;2023-02-28T21:49:34;10.97;;;5.73;;
62419;SDS011;48460;51.616;5.426;2023-02-28T21:52:15;10.82;;;5.68;;
62419;SDS011;48460;51.616;5.426;2023-02-28T21:54:48;9.25;;;5.60;;
62419;SDS011;48460;51.616;5.426;2023-02-28T21:57:16;12.70;;;6.15;;
62419;SDS011;48460;51.616;5.426;2023-02-28T21:59:42;10.38;;;6.15;;
62419;SDS011;48460;51.616;5.426;2023-02-28T22:02:33;11.07;;;6.20;;
62419;SDS011;48460;51.616;5.426;2023-02-28T22:05:08;9.48;;;6.32;;
62419;SDS011;48460;51.616;5.426;2023-02-28T22:07:36;10.48;;;6.40;;
62419;SDS011;48460;51.616;5.426;2023-02-28T22:10:28;11.50;;;6.20;;
62419;SDS011;48460;51.616;5.426;2023-02-28T22:12:58;11.40;;;6.50;;
62419;SDS011;48460;51.616;5.426;2023-02-28T22:15:25;12.15;;;6.70;;
62419;SDS011;48460;51.616;5.426;2023-02-28T22:18:02;11.18;;;6.35;;
62419;SDS011;48460;51.616;5.426;2023-02-28T22:20:36;9.98;;;6.07;;
62419;SDS011;48460;51.616;5.426;2023-02-28T22:23:07;11.95;;;6.40;;
62419;SDS011;48460;51.616;5.426;2023-02-28T22:25:35;12.27;;;6.60;;
62419;SDS011;48460;51.616;5.426;2023-02-28T22:28:02;10.27;;;6.70;;
62419;SDS011;48460;51.616;5.426;2023-02-28T22:30:29;13.70;;;6.75;;
62419;SDS011;48460;51.616;5.426;2023-02-28T22:32:55;13.65;;;6.57;;
62419;SDS011;48460;51.616;5.426;2023-02-28T22:35:20;12.02;;;6.43;;
62419;SDS011;48460;51.616;5.426;2023-02-28T22:37:46;15.73;;;7.25;;
62419;SDS011;48460;51.616;5.426;2023-02-28T22:40:12;12.32;;;6.60;;
62419;SDS011;48460;51.616;5.426;2023-02-28T22:42:37;12.95;;;6.53;;
62419;SDS011;48460;51.616;5.426;2023-02-28T22:45:03;9.85;;;6.22;;
62419;SDS011;48460;51.616;5.426;2023-02-28T22:47:29;11.00;;;5.90;;
62419;SDS011;48460;51.616;5.426;2023-02-28T22:49:57;11.63;;;6.78;;
62419;SDS011;48460;51.616;5.426;2023-02-28T22:52:25;11.55;;;6.93;;
62419;SDS011;48460;51.616;5.426;2023-02-28T22:54:52;11.30;;;6.47;;
62419;SDS011;48460;51.616;5.426;2023-02-28T22:57:19;11.27;;;6.60;;
62419;SDS011;48460;51.616;5.426;2023-02-28T22:59:47;10.48;;;6.63;;
62419;SDS011;48460;51.616;5.426;2023-02-28T23:02:12;12.50;;;6.60;;
62419;SDS011;48460;51.616;5.426;2023-02-28T23:04:38;11.30;;;6.60;;
62419;SDS011;48460;51.616;5.426;2023-02-28T23:07:04;12.57;;;6.60;;
62419;SDS011;48460;51.616;5.426;2023-02-28T23:09:38;10.70;;;6.45;;
62419;SDS011;48460;51.616;5.426;2023-02-28T23:12:06;13.25;;;7.13;;
62419;SDS011;48460;51.616;5.426;2023-02-28T23:14:31;11.70;;;6.63;;
62419;SDS011;48460;51.616;5.426;2023-02-28T23:16:57;12.15;;;7.03;;
62419;SDS011;48460;51.616;5.426;2023-02-28T23:19:26;12.93;;;7.00;;
62419;SDS011;48460;51.616;5.426;2023-02-28T23:21:54;13.13;;;6.60;;
62419;SDS011;48460;51.616;5.426;2023-02-28T23:24:24;13.15;;;6.90;;
62419;SDS011;48460;51.616;5.426;2023-02-28T23:26:52;14.15;;;7.00;;
62419;SDS011;48460;51.616;5.426;2023-02-28T23:29:20;10.82;;;6.63;;
62419;SDS011;48460;51.616;5.426;2023-02-28T23:31:46;14.43;;;7.47;;
62419;SDS011;48460;51.616;5.426;2023-02-28T23:34:12;14.60;;;6.95;;
62419;SDS011;48460;51.616;5.426;2023-02-28T23:36:52;11.55;;;7.13;;
62419;SDS011;48460;51.616;5.426;2023-02-28T23:39:22;12.23;;;7.15;;
62419;SDS011;48460;51.616;5.426;2023-02-28T23:41:48;13.05;;;7.07;;
62419;SDS011;48460;51.616;5.426;2023-02-28T23:44:16;11.65;;;6.78;;
62419;SDS011;48460;51.616;5.426;2023-02-28T23:46:46;18.25;;;7.68;;
62419;SDS011;48460;51.616;5.426;2023-02-28T23:49:13;12.07;;;6.50;;
62419;SDS011;48460;51.616;5.426;2023-02-28T23:51:44;13.68;;;7.00;;
62419;SDS011;48460;51.616;5.426;2023-02-28T23:54:10;14.73;;;7.20;;
62419;SDS011;48460;51.616;5.426;2023-02-28T23:56:39;13.00;;;7.00;;
62419;SDS011;48460;51.616;5.426;2023-02-28T23:59:10;16.27;;;6.80;;
